sensor_id;sensor_type;location;lat;lon;timestamp;pressure;altitude;pressure_sealevel;temperature;humidity
20696;BME280;10507;52.754;13.040;2023-05-17T00:01:46;101225.97;;;6.62;92.13
20696;BME280;10507;52.754;13.040;2023-05-17T00:04:15;101221.53;;;6.63;91.71
20696;BME280;10507;52.754;13.040;2023-05-17T00:06:43;101230.44;;;6.60;92.44
20696;BME280;10507;52.754;13.040;2023-05-17T00:09:11;101224.41;;;6.55;93.15
20696;BME280;10507;52.754;13.040;2023-05-17T00:11:39;101236.81;;;6.53;93.18
20696;BME280;10507;52.754;13.040;2023-05-17T00:14:06;101235.16;;;6.49;93.56
20696;BME280;10507;52.754;13.040;2023-05-17T00:16:34;101244.91;;;6.47;93.75
20696;BME280;10507;52.754;13.040;2023-05-17T00:19:03;101242.41;;;6.41;94.09
20696;BME280;10507;52.754;13.040;2023-05-17T00:21:31;101246.00;;;6.38;94.51
20696;BME280;10507;52.754;13.040;2023-05-17T00:23:59;101248.75;;;6.34;95.37
20696;BME280;10507;52.754;13.040;2023-05-17T00:26:27;101273.50;;;6.34;95.53
20696;BME280;10507;52.754;13.040;2023-05-17T00:28:55;101269.97;;;6.34;96.25
20696;BME280;10507;52.754;13.040;2023-05-17T00:31:23;101265.63;;;6.30;96.67
20696;BME280;10507;52.754;13.040;2023-05-17T00:33:51;101273.66;;;6.28;97.25
20696;BME280;10507;52.754;13.040;2023-05-17T00:36:20;101274.63;;;6.24;98.06
20696;BME280;10507;52.754;13.040;2023-05-17T00:38:48;101292.09;;;6.33;98.43
20696;BME280;10507;52.754;13.040;2023-05-17T00:41:16;101278.91;;;6.30;98.56
20696;BME280;10507;52.754;13.040;2023-05-17T00:43:44;101286.84;;;6.30;99.31
20696;BME280;10507;52.754;13.040;2023-05-17T00:46:12;101288.53;;;6.34;99.42
20696;BME280;10507;52.754;13.040;2023-05-17T00:48:40;101286.81;;;6.31;99.73
20696;BME280;10507;52.754;13.040;2023-05-17T00:51:08;101298.38;;;6.29;99.80
20696;BME280;10507;52.754;13.040;2023-05-17T00:53:38;101304.56;;;6.28;99.89
20696;BME280;10507;52.754;13.040;2023-05-17T00:56:06;101321.38;;;6.28;100.00
20696;BME280;10507;52.754;13.040;2023-05-17T00:58:34;101316.94;;;6.29;100.00
20696;BME280;10507;52.754;13.040;2023-05-17T01:01:03;101308.22;;;6.23;100.00
20696;BME280;10507;52.754;13.040;2023-05-17T01:03:31;101313.56;;;6.20;100.00
20696;BME280;10507;52.754;13.040;2023-05-17T01:06:01;101307.47;;;6.17;100.00
20696;BME280;10507;52.754;13.040;2023-05-17T01:08:29;101313.69;;;6.14;100.00
20696;BME280;10507;52.754;13.040;2023-05-17T01:11:08;101313.78;;;6.11;100.00
20696;BME280;10507;52.754;13.040;2023-05-17T01:13:42;101313.88;;;6.07;100.00
20696;BME280;10507;52.754;13.040;2023-05-17T01:16:17;101312.25;;;5.99;100.00
20696;BME280;10507;52.754;13.040;2023-05-17T01:18:55;101322.88;;;5.98;100.00
20696;BME280;10507;52.754;13.040;2023-05-17T01:21:36;101338.75;;;6.01;100.00
20696;BME280;10507;52.754;13.040;2023-05-17T01:24:24;101331.59;;;6.03;100.00
20696;BME280;10507;52.754;13.040;2023-05-17T01:26:55;101338.66;;;6.04;100.00
20696;BME280;10507;52.754;13.040;2023-05-17T01:29:27;101350.03;;;6.11;100.00
20696;BME280;10507;52.754;13.040;2023-05-17T01:31:56;101345.66;;;6.08;100.00
20696;BME280;10507;52.754;13.040;2023-05-17T01:34:27;101349.94;;;6.14;100.00
20696;BME280;10507;52.754;13.040;2023-05-17T01:36:55;101340.31;;;6.10;100.00
20696;BME280;10507;52.754;13.040;2023-05-17T01:39:24;101347.38;;;6.09;100.00
20696;BME280;10507;52.754;13.040;2023-05-17T01:42:01;101347.50;;;6.03;100.00
20696;BME280;10507;52.754;13.040;2023-05-17T01:44:37;101351.00;;;6.05;100.00
20696;BME280;10507;52.754;13.040;2023-05-17T01:47:11;101356.38;;;6.02;100.00
20696;BME280;10507;52.754;13.040;2023-05-17T01:49:40;101365.94;;;6.09;100.00
20696;BME280;10507;52.754;13.040;2023-05-17T01:52:17;101343.03;;;6.05;100.00
20696;BME280;10507;52.754;13.040;2023-05-17T01:54:48;101344.72;;;6.11;100.00
20696;BME280;10507;52.754;13.040;2023-05-17T01:57:24;101351.81;;;6.10;100.00
20696;BME280;10507;52.754;13.040;2023-05-17T01:59:58;101351.63;;;6.19;100.00
20696;BME280;10507;52.754;13.040;2023-05-17T02:02:26;101352.31;;;6.28;100.00
20696;BME280;10507;52.754;13.040;2023-05-17T02:04:54;101351.19;;;6.39;100.00
20696;BME280;10507;52.754;13.040;2023-05-17T02:07:23;101344.00;;;6.44;100.00
20696;BME280;10507;52.754;13.040;2023-05-17T02:09:51;101344.66;;;6.54;100.00
20696;BME280;10507;52.754;13.040;2023-05-17T02:12:22;101335.69;;;6.61;100.00
20696;BME280;10507;52.754;13.040;2023-05-17T02:14:50;101332.94;;;6.66;100.00
20696;BME280;10507;52.754;13.040;2023-05-17T02:17:18;101319.69;;;6.64;100.00
20696;BME280;10507;52.754;13.040;2023-05-17T02:19:46;101308.94;;;6.71;100.00
20696;BME280;10507;52.754;13.040;2023-05-17T02:22:14;101309.72;;;6.74;100.00
20696;BME280;10507;52.754;13.040;2023-05-17T02:24:42;101299.06;;;6.77;100.00
20696;BME280;10507;52.754;13.040;2023-05-17T02:27:09;101308.63;;;6.83;100.00
20696;BME280;10507;52.754;13.040;2023-05-17T02:29:39;101299.78;;;6.84;100.00
20696;BME280;10507;52.754;13.040;2023-05-17T02:32:06;101296.31;;;6.80;100.00
20696;BME280;10507;52.754;13.040;2023-05-17T02:34:34;101296.34;;;6.79;100.00
20696;BME280;10507;52.754;13.040;2023-05-17T02:37:02;101294.00;;;6.66;100.00
20696;BME280;10507;52.754;13.040;2023-05-17T02:39:31;101304.75;;;6.60;100.00
20696;BME280;10507;52.754;13.040;2023-05-17T02:41:59;101294.44;;;6.47;100.00
20696;BME280;10507;52.754;13.040;2023-05-17T02:44:27;101313.97;;;6.42;100.00
20696;BME280;10507;52.754;13.040;2023-05-17T02:46:56;101332.56;;;6.41;100.00
20696;BME280;10507;52.754;13.040;2023-05-17T02:49:24;101336.25;;;6.35;100.00
20696;BME280;10507;52.754;13.040;2023-05-17T02:51:51;101336.47;;;6.24;100.00
20696;BME280;10507;52.754;13.040;2023-05-17T02:54:19;101360.25;;;6.28;100.00
20696;BME280;10507;52.754;13.040;2023-05-17T02:56:47;101369.22;;;6.22;100.00
20696;BME280;10507;52.754;13.040;2023-05-17T02:59:15;101373.72;;;6.18;100.00
20696;BME280;10507;52.754;13.040;2023-05-17T03:01:43;101382.56;;;6.19;100.00
20696;BME280;10507;52.754;13.040;2023-05-17T03:04:15;101395.78;;;6.20;100.00
20696;BME280;10507;52.754;13.040;2023-05-17T03:06:44;101402.75;;;6.26;100.00
20696;BME280;10507;52.754;13.040;2023-05-17T03:09:14;101418.41;;;6.38;100.00
20696;BME280;10507;52.754;13.040;2023-05-17T03:11:41;101418.16;;;6.51;100.00
20696;BME280;10507;52.754;13.040;2023-05-17T03:14:09;101410.78;;;6.63;100.00
20696;BME280;10507;52.754;13.040;2023-05-17T03:16:37;101404.47;;;6.71;100.00
20696;BME280;10507;52.754;13.040;2023-05-17T03:19:05;101390.13;;;6.79;100.00
20696;BME280;10507;52.754;13.040;2023-05-17T03:21:34;101389.97;;;6.85;100.00
20696;BME280;10507;52.754;13.040;2023-05-17T03:24:02;101384.53;;;6.90;100.00
20696;BME280;10507;52.754;13.040;2023-05-17T03:26:30;101374.00;;;6.87;100.00
20696;BME280;10507;52.754;13.040;2023-05-17T03:28:58;101364.41;;;6.81;100.00
20696;BME280;10507;52.754;13.040;2023-05-17T03:31:26;101363.63;;;6.78;100.00
20696;BME280;10507;52.754;13.040;2023-05-17T03:33:54;101368.06;;;6.76;100.00
20696;BME280;10507;52.754;13.040;2023-05-17T03:36:22;101386.63;;;6.77;100.00
20696;BME280;10507;52.754;13.040;2023-05-17T03:38:51;101367.31;;;6.71;100.00
20696;BME280;10507;52.754;13.040;2023-05-17T03:41:19;101370.84;;;6.70;100.00
20696;BME280;10507;52.754;13.040;2023-05-17T03:43:47;101384.22;;;6.65;100.00
20696;BME280;10507;52.754;13.040;2023-05-17T03:46:15;101386.91;;;6.63;100.00
20696;BME280;10507;52.754;13.040;2023-05-17T03:48:43;101387.00;;;6.59;100.00
20696;BME280;10507;52.754;13.040;2023-05-17T03:51:12;101394.19;;;6.55;100.00
20696;BME280;10507;52.754;13.040;2023-05-17T03:53:39;101411.00;;;6.54;100.00
20696;BME280;10507;52.754;13.040;2023-05-17T03:56:10;101423.38;;;6.55;100.00
20696;BME280;10507;52.754;13.040;2023-05-17T03:58:38;101435.75;;;6.55;100.00
20696;BME280;10507;52.754;13.040;2023-05-17T04:01:06;101444.50;;;6.58;100.00
20696;BME280;10507;52.754;13.040;2023-05-17T04:03:34;101453.28;;;6.62;100.00
20696;BME280;10507;52.754;13.040;2023-05-17T04:06:03;101450.66;;;6.62;100.00
20696;BME280;10507;52.754;13.040;2023-05-17T04:08:32;101463.75;;;6.68;100.00
20696;BME280;10507;52.754;13.040;2023-05-17T04:11:01;101458.38;;;6.73;100.00
20696;BME280;10507;52.754;13.040;2023-05-17T04:13:37;101461.59;;;6.87;100.00
20696;BME280;10507;52.754;13.040;2023-05-17T04:16:06;101442.84;;;6.95;100.00
20696;BME280;10507;52.754;13.040;2023-05-17T04:18:34;101449.69;;;7.06;100.00
20696;BME280;10507;52.754;13.040;2023-05-17T04:21:03;101433.44;;;7.19;100.00
20696;BME280;10507;52.754;13.040;2023-05-17T04:23:32;101412.94;;;7.25;100.00
20696;BME280;10507;52.754;13.040;2023-05-17T04:26:00;101404.00;;;7.29;100.00
20696;BME280;10507;52.754;13.040;2023-05-17T04:28:28;101411.69;;;7.40;100.00
20696;BME280;10507;52.754;13.040;2023-05-17T04:30:58;101400.91;;;7.46;100.00
20696;BME280;10507;52.754;13.040;2023-05-17T04:33:25;101399.78;;;7.57;100.00
20696;BME280;10507;52.754;13.040;2023-05-17T04:35:54;101389.81;;;7.65;100.00
20696;BME280;10507;52.754;13.040;2023-05-17T04:38:22;101407.97;;;7.82;100.00
20696;BME280;10507;52.754;13.040;2023-05-17T04:40:50;101407.19;;;8.11;100.00
20696;BME280;10507;52.754;13.040;2023-05-17T04:43:18;101430.75;;;8.87;100.00
20696;BME280;10507;52.754;13.040;2023-05-17T04:45:45;101440.69;;;9.92;98.28
20696;BME280;10507;52.754;13.040;2023-05-17T04:48:15;101336.06;;;10.56;93.70
20696;BME280;10507;52.754;13.040;2023-05-17T04:50:45;101230.19;;;11.59;90.00
20696;BME280;10507;52.754;13.040;2023-05-17T04:53:13;101087.75;;;11.93;86.17
20696;BME280;10507;52.754;13.040;2023-05-17T04:55:42;101079.47;;;12.34;84.05
20696;BME280;10507;52.754;13.040;2023-05-17T04:58:10;101035.84;;;12.50;81.49
20696;BME280;10507;52.754;13.040;2023-05-17T05:00:38;100958.78;;;12.55;81.08
20696;BME280;10507;52.754;13.040;2023-05-17T05:03:06;100946.50;;;12.51;80.29
20696;BME280;10507;52.754;13.040;2023-05-17T05:05:35;100841.88;;;11.52;82.84
20696;BME280;10507;52.754;13.040;2023-05-17T05:08:03;100861.47;;;10.99;83.66
20696;BME280;10507;52.754;13.040;2023-05-17T05:10:31;101020.09;;;10.96;85.46
20696;BME280;10507;52.754;13.040;2023-05-17T05:12:59;101120.50;;;11.21;86.09
20696;BME280;10507;52.754;13.040;2023-05-17T05:15:27;101143.47;;;11.83;84.40
20696;BME280;10507;52.754;13.040;2023-05-17T05:17:55;101067.78;;;12.00;82.70
20696;BME280;10507;52.754;13.040;2023-05-17T05:20:23;101277.91;;;13.20;81.79
20696;BME280;10507;52.754;13.040;2023-05-17T05:22:54;101015.28;;;13.66;77.58
20696;BME280;10507;52.754;13.040;2023-05-17T05:25:23;101113.50;;;14.16;76.91
20696;BME280;10507;52.754;13.040;2023-05-17T05:27:52;100911.97;;;14.03;75.57
20696;BME280;10507;52.754;13.040;2023-05-17T05:30:19;101101.81;;;15.22;73.33
20696;BME280;10507;52.754;13.040;2023-05-17T05:32:48;100808.00;;;14.77;72.15
20696;BME280;10507;52.754;13.040;2023-05-17T05:35:17;100619.22;;;13.78;72.37
20696;BME280;10507;52.754;13.040;2023-05-17T05:37:45;100744.75;;;13.87;72.04
20696;BME280;10507;52.754;13.040;2023-05-17T05:40:14;100857.09;;;14.66;69.79
20696;BME280;10507;52.754;13.040;2023-05-17T05:42:42;100862.03;;;14.87;69.29
20696;BME280;10507;52.754;13.040;2023-05-17T05:45:11;100611.31;;;14.30;69.79
20696;BME280;10507;52.754;13.040;2023-05-17T05:47:39;100849.59;;;14.71;69.78
20696;BME280;10507;52.754;13.040;2023-05-17T05:50:08;100915.03;;;15.26;69.14
20696;BME280;10507;52.754;13.040;2023-05-17T05:52:36;100555.66;;;14.05;69.46
20696;BME280;10507;52.754;13.040;2023-05-17T05:55:05;100588.41;;;14.25;69.30
20696;BME280;10507;52.754;13.040;2023-05-17T05:57:34;100467.50;;;13.45;69.55
20696;BME280;10507;52.754;13.040;2023-05-17T06:00:02;100504.19;;;12.58;72.02
20696;BME280;10507;52.754;13.040;2023-05-17T06:02:31;100687.25;;;12.41;73.44
20696;BME280;10507;52.754;13.040;2023-05-17T06:05:00;100821.16;;;13.21;72.42
20696;BME280;10507;52.754;13.040;2023-05-17T06:07:29;100878.47;;;13.50;71.27
20696;BME280;10507;52.754;13.040;2023-05-17T06:09:57;100899.50;;;14.02;70.23
20696;BME280;10507;52.754;13.040;2023-05-17T06:12:25;100754.03;;;13.67;70.32
20696;BME280;10507;52.754;13.040;2023-05-17T06:14:55;100786.72;;;13.59;71.12
20696;BME280;10507;52.754;13.040;2023-05-17T06:17:22;100891.44;;;14.61;67.88
20696;BME280;10507;52.754;13.040;2023-05-17T06:19:50;100578.19;;;13.76;67.83
20696;BME280;10507;52.754;13.040;2023-05-17T06:22:18;100602.09;;;13.37;68.33
20696;BME280;10507;52.754;13.040;2023-05-17T06:24:47;100692.13;;;13.84;66.68
20696;BME280;10507;52.754;13.040;2023-05-17T06:27:15;100686.66;;;14.00;66.68
20696;BME280;10507;52.754;13.040;2023-05-17T06:29:43;100675.88;;;14.14;65.17
20696;BME280;10507;52.754;13.040;2023-05-17T06:32:12;100558.03;;;14.37;63.89
20696;BME280;10507;52.754;13.040;2023-05-17T06:34:40;100712.72;;;15.08;61.95
20696;BME280;10507;52.754;13.040;2023-05-17T06:37:08;100670.47;;;15.49;61.10
20696;BME280;10507;52.754;13.040;2023-05-17T06:39:36;100733.56;;;16.21;60.16
20696;BME280;10507;52.754;13.040;2023-05-17T06:42:04;100867.50;;;17.32;57.35
20696;BME280;10507;52.754;13.040;2023-05-17T06:44:32;100704.03;;;17.05;57.41
20696;BME280;10507;52.754;13.040;2023-05-17T06:47:00;100537.16;;;17.12;56.47
20696;BME280;10507;52.754;13.040;2023-05-17T06:49:29;100588.50;;;16.99;56.73
20696;BME280;10507;52.754;13.040;2023-05-17T06:51:57;100836.22;;;18.00;55.81
20696;BME280;10507;52.754;13.040;2023-05-17T06:54:28;100599.97;;;17.81;54.81
20696;BME280;10507;52.754;13.040;2023-05-17T06:56:58;100590.50;;;17.53;54.52
20696;BME280;10507;52.754;13.040;2023-05-17T06:59:27;100316.84;;;16.90;54.58
20696;BME280;10507;52.754;13.040;2023-05-17T07:01:55;100296.75;;;16.04;55.80
20696;BME280;10507;52.754;13.040;2023-05-17T07:04:23;100479.91;;;16.39;55.92
20696;BME280;10507;52.754;13.040;2023-05-17T07:06:52;100488.41;;;16.57;56.21
20696;BME280;10507;52.754;13.040;2023-05-17T07:09:20;100648.03;;;16.12;57.09
20696;BME280;10507;52.754;13.040;2023-05-17T07:11:48;100752.72;;;16.67;57.02
20696;BME280;10507;52.754;13.040;2023-05-17T07:14:16;100882.72;;;17.57;56.63
20696;BME280;10507;52.754;13.040;2023-05-17T07:16:45;100685.63;;;17.68;54.52
20696;BME280;10507;52.754;13.040;2023-05-17T07:19:14;100578.94;;;16.59;55.78
20696;BME280;10507;52.754;13.040;2023-05-17T07:21:42;100586.81;;;16.74;55.26
20696;BME280;10507;52.754;13.040;2023-05-17T07:24:11;100660.91;;;17.28;54.42
20696;BME280;10507;52.754;13.040;2023-05-17T07:26:39;100590.28;;;17.34;53.66
20696;BME280;10507;52.754;13.040;2023-05-17T07:29:07;100737.97;;;17.90;53.77
20696;BME280;10507;52.754;13.040;2023-05-17T07:31:34;100418.53;;;16.65;54.81
20696;BME280;10507;52.754;13.040;2023-05-17T07:34:03;100547.53;;;16.82;54.73
20696;BME280;10507;52.754;13.040;2023-05-17T07:36:31;100582.66;;;16.46;55.53
20696;BME280;10507;52.754;13.040;2023-05-17T07:38:59;100695.34;;;16.65;56.33
20696;BME280;10507;52.754;13.040;2023-05-17T07:41:28;100625.19;;;16.77;55.66
20696;BME280;10507;52.754;13.040;2023-05-17T07:43:57;100661.44;;;16.73;56.20
20696;BME280;10507;52.754;13.040;2023-05-17T07:46:24;100701.00;;;16.86;55.58
20696;BME280;10507;52.754;13.040;2023-05-17T07:48:52;100602.84;;;16.64;55.81
20696;BME280;10507;52.754;13.040;2023-05-17T07:51:24;100549.78;;;16.05;57.04
20696;BME280;10507;52.754;13.040;2023-05-17T07:53:52;100759.50;;;16.23;57.11
20696;BME280;10507;52.754;13.040;2023-05-17T07:56:20;100973.25;;;17.50;56.02
20696;BME280;10507;52.754;13.040;2023-05-17T07:58:49;100693.69;;;17.34;53.93
20696;BME280;10507;52.754;13.040;2023-05-17T08:01:17;100790.13;;;17.43;54.30
20696;BME280;10507;52.754;13.040;2023-05-17T08:03:44;100807.41;;;17.76;53.95
20696;BME280;10507;52.754;13.040;2023-05-17T08:06:14;100643.78;;;17.40;53.69
20696;BME280;10507;52.754;13.040;2023-05-17T08:08:43;100696.19;;;17.71;52.78
20696;BME280;10507;52.754;13.040;2023-05-17T08:11:11;100525.03;;;16.59;53.61
20696;BME280;10507;52.754;13.040;2023-05-17T08:13:39;100549.31;;;15.87;55.39
20696;BME280;10507;52.754;13.040;2023-05-17T08:16:09;100606.13;;;16.08;54.85
20696;BME280;10507;52.754;13.040;2023-05-17T08:18:40;100727.19;;;16.10;56.26
20696;BME280;10507;52.754;13.040;2023-05-17T08:21:09;100681.88;;;16.04;56.06
20696;BME280;10507;52.754;13.040;2023-05-17T08:23:38;100621.78;;;16.03;55.39
20696;BME280;10507;52.754;13.040;2023-05-17T08:26:06;100555.81;;;16.09;54.92
20696;BME280;10507;52.754;13.040;2023-05-17T08:28:34;100722.41;;;16.39;55.41
20696;BME280;10507;52.754;13.040;2023-05-17T08:31:02;100835.63;;;16.76;56.64
20696;BME280;10507;52.754;13.040;2023-05-17T08:33:34;100610.03;;;16.28;54.66
20696;BME280;10507;52.754;13.040;2023-05-17T08:36:02;100707.50;;;16.46;55.36
20696;BME280;10507;52.754;13.040;2023-05-17T08:38:36;100685.94;;;16.09;55.88
20696;BME280;10507;52.754;13.040;2023-05-17T08:41:04;100771.53;;;16.42;55.76
20696;BME280;10507;52.754;13.040;2023-05-17T08:43:32;100893.22;;;16.88;56.40
20696;BME280;10507;52.754;13.040;2023-05-17T08:46:01;100636.47;;;15.73;56.26
20696;BME280;10507;52.754;13.040;2023-05-17T08:48:30;100479.56;;;14.72;56.82
20696;BME280;10507;52.754;13.040;2023-05-17T08:50:59;100623.22;;;14.93;57.65
20696;BME280;10507;52.754;13.040;2023-05-17T08:53:27;100704.88;;;15.05;57.84
20696;BME280;10507;52.754;13.040;2023-05-17T08:55:57;100758.44;;;15.08;59.00
20696;BME280;10507;52.754;13.040;2023-05-17T08:58:27;100683.94;;;15.23;57.18
20696;BME280;10507;52.754;13.040;2023-05-17T09:01:17;100640.97;;;15.09;56.44
20696;BME280;10507;52.754;13.040;2023-05-17T09:03:47;100711.03;;;15.20;56.87
20696;BME280;10507;52.754;13.040;2023-05-17T09:06:19;100674.97;;;15.10;56.98
20696;BME280;10507;52.754;13.040;2023-05-17T09:08:49;100752.88;;;15.24;57.05
20696;BME280;10507;52.754;13.040;2023-05-17T09:11:28;100678.06;;;15.04;56.94
20696;BME280;10507;52.754;13.040;2023-05-17T09:13:59;100640.19;;;14.81;57.23
20696;BME280;10507;52.754;13.040;2023-05-17T09:16:28;100741.81;;;15.16;57.31
20696;BME280;10507;52.754;13.040;2023-05-17T09:18:57;100634.75;;;14.95;57.10
20696;BME280;10507;52.754;13.040;2023-05-17T09:21:27;100625.44;;;14.74;57.10
20696;BME280;10507;52.754;13.040;2023-05-17T09:23:57;100706.22;;;14.85;57.69
20696;BME280;10507;52.754;13.040;2023-05-17T09:26:40;100601.75;;;14.39;57.61
20696;BME280;10507;52.754;13.040;2023-05-17T09:29:09;100762.91;;;14.68;58.35
20696;BME280;10507;52.754;13.040;2023-05-17T09:31:38;100690.91;;;14.73;57.44
20696;BME280;10507;52.754;13.040;2023-05-17T09:34:06;100550.16;;;13.94;58.14
20696;BME280;10507;52.754;13.040;2023-05-17T09:36:37;100545.88;;;13.50;58.77
20696;BME280;10507;52.754;13.040;2023-05-17T09:39:07;100752.06;;;13.99;58.99
20696;BME280;10507;52.754;13.040;2023-05-17T09:41:41;100771.28;;;14.34;58.09
20696;BME280;10507;52.754;13.040;2023-05-17T09:44:11;100696.75;;;14.38;57.07
20696;BME280;10507;52.754;13.040;2023-05-17T09:46:41;100624.78;;;14.43;56.37
20696;BME280;10507;52.754;13.040;2023-05-17T09:49:11;100561.19;;;14.17;56.46
20696;BME280;10507;52.754;13.040;2023-05-17T09:51:42;100795.56;;;14.47;58.04
20696;BME280;10507;52.754;13.040;2023-05-17T09:54:10;100763.31;;;14.62;58.06
20696;BME280;10507;52.754;13.040;2023-05-17T09:56:39;100783.19;;;14.86;57.39
20696;BME280;10507;52.754;13.040;2023-05-17T09:59:11;100619.66;;;14.80;55.39
20696;BME280;10507;52.754;13.040;2023-05-17T10:01:40;100609.88;;;14.25;56.87
20696;BME280;10507;52.754;13.040;2023-05-17T10:04:09;100600.53;;;14.03;57.06
20696;BME280;10507;52.754;13.040;2023-05-17T10:06:39;100646.94;;;14.20;57.14
20696;BME280;10507;52.754;13.040;2023-05-17T10:09:13;100693.81;;;14.14;58.02
20696;BME280;10507;52.754;13.040;2023-05-17T10:11:43;100779.53;;;14.46;58.10
20696;BME280;10507;52.754;13.040;2023-05-17T10:14:16;100743.34;;;14.66;56.81
20696;BME280;10507;52.754;13.040;2023-05-17T10:16:49;100753.94;;;14.82;56.48
20696;BME280;10507;52.754;13.040;2023-05-17T10:19:17;100751.66;;;15.03;56.12
20696;BME280;10507;52.754;13.040;2023-05-17T10:21:47;100649.84;;;14.71;56.40
20696;BME280;10507;52.754;13.040;2023-05-17T10:24:19;100765.72;;;14.93;56.79
20696;BME280;10507;52.754;13.040;2023-05-17T10:26:48;100718.44;;;14.76;56.56
20696;BME280;10507;52.754;13.040;2023-05-17T10:29:18;100817.50;;;15.10;56.85
20696;BME280;10507;52.754;13.040;2023-05-17T10:31:48;100627.59;;;14.82;55.40
20696;BME280;10507;52.754;13.040;2023-05-17T10:34:18;100834.97;;;15.17;56.77
20696;BME280;10507;52.754;13.040;2023-05-17T10:36:48;100776.53;;;15.19;56.23
20696;BME280;10507;52.754;13.040;2023-05-17T10:39:17;100728.19;;;14.92;56.73
20696;BME280;10507;52.754;13.040;2023-05-17T10:41:47;100808.06;;;15.17;56.67
20696;BME280;10507;52.754;13.040;2023-05-17T10:44:17;100839.94;;;15.23;56.85
20696;BME280;10507;52.754;13.040;2023-05-17T10:46:53;100863.28;;;15.50;56.87
20696;BME280;10507;52.754;13.040;2023-05-17T10:49:23;100879.13;;;15.54;57.17
20696;BME280;10507;52.754;13.040;2023-05-17T10:51:53;100823.47;;;15.68;55.96
20696;BME280;10507;52.754;13.040;2023-05-17T10:54:33;100699.81;;;15.01;56.38
20696;BME280;10507;52.754;13.040;2023-05-17T10:57:03;100726.97;;;15.23;55.98
20696;BME280;10507;52.754;13.040;2023-05-17T10:59:34;100717.72;;;15.27;55.35
20696;BME280;10507;52.754;13.040;2023-05-17T11:02:04;100741.38;;;15.22;55.61
20696;BME280;10507;52.754;13.040;2023-05-17T11:04:33;100649.44;;;14.90;55.27
20696;BME280;10507;52.754;13.040;2023-05-17T11:07:22;100602.34;;;14.84;54.09
20696;BME280;10507;52.754;13.040;2023-05-17T11:09:54;100740.50;;;15.22;54.42
20696;BME280;10507;52.754;13.040;2023-05-17T11:12:28;100678.53;;;15.10;54.69
20696;BME280;10507;52.754;13.040;2023-05-17T11:14:59;100681.84;;;15.01;55.26
20696;BME280;10507;52.754;13.040;2023-05-17T11:17:33;100606.50;;;14.63;55.03
20696;BME280;10507;52.754;13.040;2023-05-17T11:20:06;100583.19;;;14.36;55.42
20696;BME280;10507;52.754;13.040;2023-05-17T11:22:41;100628.47;;;14.28;55.70
20696;BME280;10507;52.754;13.040;2023-05-17T11:25:12;100684.25;;;14.51;55.65
20696;BME280;10507;52.754;13.040;2023-05-17T11:27:44;100611.81;;;14.23;55.96
20696;BME280;10507;52.754;13.040;2023-05-17T11:30:16;100806.84;;;14.52;57.08
20696;BME280;10507;52.754;13.040;2023-05-17T11:32:49;100675.19;;;14.40;55.79
20696;BME280;10507;52.754;13.040;2023-05-17T11:35:18;100743.34;;;14.66;55.68
20696;BME280;10507;52.754;13.040;2023-05-17T11:37:51;100757.94;;;14.62;56.67
20696;BME280;10507;52.754;13.040;2023-05-17T11:40:25;100745.56;;;14.59;55.99
20696;BME280;10507;52.754;13.040;2023-05-17T11:43:13;100811.44;;;14.93;55.75
20696;BME280;10507;52.754;13.040;2023-05-17T11:45:43;100699.84;;;14.86;54.50
20696;BME280;10507;52.754;13.040;2023-05-17T11:48:11;100728.84;;;14.95;54.44
20696;BME280;10507;52.754;13.040;2023-05-17T11:50:40;100892.81;;;15.37;55.05
20696;BME280;10507;52.754;13.040;2023-05-17T11:53:09;100778.53;;;15.30;54.67
20696;BME280;10507;52.754;13.040;2023-05-17T11:55:39;100821.69;;;15.41;54.39
20696;BME280;10507;52.754;13.040;2023-05-17T11:58:09;100745.03;;;15.21;54.53
20696;BME280;10507;52.754;13.040;2023-05-17T12:00:38;100739.53;;;15.10;54.91
20696;BME280;10507;52.754;13.040;2023-05-17T12:03:15;100809.13;;;15.14;55.45
20696;BME280;10507;52.754;13.040;2023-05-17T12:05:43;100708.06;;;14.85;55.21
20696;BME280;10507;52.754;13.040;2023-05-17T12:08:13;100625.00;;;14.40;55.04
20696;BME280;10507;52.754;13.040;2023-05-17T12:10:45;100801.97;;;14.73;56.55
20696;BME280;10507;52.754;13.040;2023-05-17T12:13:13;100833.13;;;14.90;56.32
20696;BME280;10507;52.754;13.040;2023-05-17T12:15:44;100692.31;;;14.51;56.17
20696;BME280;10507;52.754;13.040;2023-05-17T12:18:12;100720.84;;;14.40;56.90
20696;BME280;10507;52.754;13.040;2023-05-17T12:20:54;100769.00;;;14.28;57.48
20696;BME280;10507;52.754;13.040;2023-05-17T12:23:27;100916.41;;;14.78;57.62
20696;BME280;10507;52.754;13.040;2023-05-17T12:26:06;100879.97;;;14.86;57.48
20696;BME280;10507;52.754;13.040;2023-05-17T12:28:36;100750.16;;;14.57;57.05
20696;BME280;10507;52.754;13.040;2023-05-17T12:31:07;100833.16;;;14.62;57.82
20696;BME280;10507;52.754;13.040;2023-05-17T12:33:37;100866.00;;;14.67;57.53
20696;BME280;10507;52.754;13.040;2023-05-17T12:36:08;100980.59;;;15.11;57.86
20696;BME280;10507;52.754;13.040;2023-05-17T12:38:38;100894.66;;;14.95;57.06
20696;BME280;10507;52.754;13.040;2023-05-17T12:41:09;100734.88;;;14.30;57.65
20696;BME280;10507;52.754;13.040;2023-05-17T12:43:39;100932.22;;;14.68;58.65
20696;BME280;10507;52.754;13.040;2023-05-17T12:46:08;100981.38;;;14.99;58.44
20696;BME280;10507;52.754;13.040;2023-05-17T12:48:38;100916.16;;;14.95;57.99
20696;BME280;10507;52.754;13.040;2023-05-17T12:51:10;100910.41;;;15.01;57.14
20696;BME280;10507;52.754;13.040;2023-05-17T12:53:40;100955.44;;;15.12;57.81